TAF EGPL 050753Z 0507/0515 09003KT 9999 SCT020
TEMPO 0507/0515 6000 RA
PROB30
TEMPO 0507/0515 3000 +RA BKN006
From batch tds/tafs/production/2024/2/5/h08_m00_tafs.cache.xml.gz
Issued (5 months ago)
Forecasts
0507/0515 9003KT 6+SM SCT2000

---
fcst_time_to: '2024-02-05T15:00:00Z'
sky_condition:
- sky_cover: SCT
  cloud_base_ft_agl: '2000'
wind_speed_kt: '3'
fcst_time_from: '2024-02-05T07:00:00Z'
wind_dir_degrees: '90'
visibility_statute_mi: 6+

TEMPO 0507/0515

---
wx_string: RA
fcst_time_to: '2024-02-05T15:00:00Z'
fcst_time_from: '2024-02-05T07:00:00Z'
change_indicator: TEMPO
visibility_statute_mi: '3.73'

TEMPO 0507/0515 BKN600

---
wx_string: "+RA"
probability: '30'
fcst_time_to: '2024-02-05T15:00:00Z'
sky_condition:
- sky_cover: BKN
  cloud_base_ft_agl: '600'
fcst_time_from: '2024-02-05T07:00:00Z'
change_indicator: TEMPO
visibility_statute_mi: '1.86'

talk